createdAt,value
2018-10-12T00:00:10.922Z,96.00
2018-10-12T00:02:40.540Z,96.00
2018-10-12T00:05:09.929Z,96.00
2018-10-12T00:07:38.976Z,96.10
2018-10-12T00:10:08.316Z,96.10
2018-10-12T00:12:37.354Z,96.40
2018-10-12T00:15:06.882Z,96.10
2018-10-12T00:17:35.793Z,96.20
2018-10-12T00:20:05.334Z,96.20
2018-10-12T00:22:34.492Z,96.20
2018-10-12T00:25:03.712Z,96.20
2018-10-12T00:27:32.626Z,96.40
2018-10-12T00:30:01.678Z,96.40
2018-10-12T00:32:30.705Z,96.40
2018-10-12T00:34:59.952Z,96.40
2018-10-12T00:37:29.076Z,96.50
2018-10-12T00:39:58.197Z,96.50
2018-10-12T00:42:27.436Z,96.50
2018-10-12T00:44:56.373Z,96.50
2018-10-12T00:47:25.604Z,96.50
2018-10-12T00:49:54.679Z,96.50
2018-10-12T00:52:23.683Z,96.40
2018-10-12T00:54:52.802Z,96.40
2018-10-12T00:57:21.831Z,96.40
2018-10-12T00:59:51.018Z,96.40
2018-10-12T01:02:20.865Z,96.50
2018-10-12T01:04:49.762Z,96.50
2018-10-12T01:07:18.756Z,96.50
2018-10-12T01:09:47.736Z,96.40
2018-10-12T01:12:37.051Z,96.40
2018-10-12T01:15:06.889Z,96.40
2018-10-12T01:17:36.617Z,96.40
2018-10-12T01:20:06.284Z,96.50
2018-10-12T01:22:35.430Z,96.50
2018-10-12T01:25:05.293Z,96.60
2018-10-12T01:27:34.691Z,96.50
2018-10-12T01:30:04.482Z,96.50
2018-10-12T01:32:38.881Z,96.80
2018-10-12T01:35:07.902Z,96.50
2018-10-12T01:37:36.792Z,96.70
2018-10-12T01:40:05.916Z,96.80
2018-10-12T01:42:34.895Z,96.90
2018-10-12T01:45:03.967Z,96.90
2018-10-12T01:47:32.914Z,97.00
2018-10-12T01:50:01.908Z,97.00
2018-10-12T01:52:31.050Z,97.10
2018-10-12T01:55:00.198Z,97.20
2018-10-12T01:57:29.196Z,97.30
2018-10-12T01:59:58.359Z,97.30
2018-10-12T02:02:27.236Z,97.40
2018-10-12T02:04:56.214Z,97.50
2018-10-12T02:07:25.227Z,97.60
2018-10-12T02:09:54.256Z,97.60
2018-10-12T02:12:23.534Z,97.70
2018-10-12T02:14:52.761Z,97.80
2018-10-12T02:17:21.734Z,97.80
2018-10-12T02:19:50.782Z,97.80
2018-10-12T02:22:20.408Z,97.80
2018-10-12T02:24:49.491Z,97.70
2018-10-12T02:27:18.649Z,97.70
2018-10-12T02:29:47.592Z,97.80
2018-10-12T02:32:16.482Z,97.80
2018-10-12T02:34:45.459Z,97.80
2018-10-12T02:37:14.391Z,97.80
2018-10-12T02:39:43.417Z,97.80
2018-10-12T02:42:12.353Z,97.80
2018-10-12T02:44:41.387Z,97.80
2018-10-12T02:47:10.310Z,97.80
2018-10-12T02:49:39.247Z,97.80
2018-10-12T02:52:08.346Z,97.80
2018-10-12T02:54:37.316Z,97.90
2018-10-12T02:57:06.362Z,97.90
2018-10-12T02:59:35.338Z,97.90
2018-10-12T03:02:04.269Z,97.90
2018-10-12T03:04:33.337Z,98.00
2018-10-12T03:07:02.436Z,98.00
2018-10-12T03:09:31.280Z,98.00
2018-10-12T03:12:00.307Z,98.00
2018-10-12T03:14:29.237Z,98.00
2018-10-12T03:16:58.211Z,98.10
2018-10-12T03:19:27.293Z,98.20
2018-10-12T03:21:56.239Z,98.10
2018-10-12T03:24:25.192Z,98.00
2018-10-12T03:27:00.566Z,98.10
2018-10-12T03:29:29.493Z,98.10
2018-10-12T03:31:58.596Z,98.10
2018-10-12T03:34:27.576Z,98.10
2018-10-12T03:36:56.829Z,98.10
2018-10-12T03:39:25.854Z,98.10
2018-10-12T03:41:54.964Z,98.50
2018-10-12T03:44:24.000Z,98.20
2018-10-12T03:46:53.206Z,98.20
2018-10-12T03:49:22.173Z,98.20
2018-10-12T03:51:51.229Z,98.10
2018-10-12T03:54:20.414Z,98.10
2018-10-12T03:56:49.363Z,98.10
2018-10-12T03:59:18.928Z,98.00
2018-10-12T04:01:47.874Z,98.00
2018-10-12T04:04:16.951Z,98.10
2018-10-12T04:06:46.182Z,98.10
2018-10-12T04:09:15.043Z,98.20
2018-10-12T04:11:43.993Z,98.10
2018-10-12T04:14:12.911Z,98.20
2018-10-12T04:16:41.857Z,98.10
2018-10-12T04:19:10.762Z,98.10
2018-10-12T04:21:39.968Z,98.10
2018-10-12T04:24:09.088Z,98.00
2018-10-12T04:26:38.178Z,98.00
2018-10-12T04:29:07.256Z,98.00
2018-10-12T04:31:36.232Z,97.90
2018-10-12T04:34:05.223Z,97.80
2018-10-12T04:36:34.374Z,97.80
2018-10-12T04:39:14.350Z,97.80
2018-10-12T04:41:43.349Z,97.80
2018-10-12T04:44:12.331Z,97.80
2018-10-12T04:46:42.900Z,97.80
2018-10-12T04:49:14.492Z,98.00
2018-10-12T04:51:49.118Z,97.70
2018-10-12T04:54:18.620Z,97.60
2018-10-12T04:56:48.380Z,97.50
2018-10-12T04:59:17.725Z,97.50
2018-10-12T05:01:46.947Z,97.60
2018-10-12T05:04:16.040Z,97.60
2018-10-12T05:06:45.065Z,97.50
2018-10-12T05:09:14.719Z,97.40
2018-10-12T05:11:44.687Z,97.50
2018-10-12T05:14:13.727Z,97.50
2018-10-12T05:16:42.774Z,97.40
2018-10-12T05:19:11.956Z,97.50
2018-10-12T05:21:40.931Z,97.50
2018-10-12T05:24:10.212Z,97.50
2018-10-12T05:26:39.441Z,97.60
2018-10-12T05:29:08.690Z,97.60
2018-10-12T05:31:37.992Z,97.50
2018-10-12T05:34:07.249Z,97.60
2018-10-12T05:36:36.224Z,97.70
2018-10-12T05:39:08.862Z,97.80
2018-10-12T05:41:38.144Z,97.80
2018-10-12T05:44:07.817Z,97.90
2018-10-12T05:46:36.775Z,97.90
2018-10-12T05:49:16.676Z,97.90
2018-10-12T05:51:45.745Z,98.00
2018-10-12T05:54:15.207Z,97.90
2018-10-12T05:56:45.159Z,97.90
2018-10-12T05:59:14.301Z,98.20
2018-10-12T06:01:43.421Z,98.00
2018-10-12T06:04:12.385Z,97.90
2018-10-12T06:06:41.447Z,98.00
2018-10-12T06:09:10.584Z,97.90
2018-10-12T06:11:39.924Z,98.00
2018-10-12T06:14:09.050Z,98.00
2018-10-12T06:16:38.159Z,98.00
2018-10-12T06:19:07.292Z,98.00
2018-10-12T06:21:36.529Z,98.00
2018-10-12T06:24:06.080Z,98.00
2018-10-12T06:26:36.270Z,98.00
2018-10-12T06:29:05.555Z,97.90
2018-10-12T06:31:34.690Z,97.90
2018-10-12T06:34:03.914Z,97.90
2018-10-12T06:36:34.005Z,98.10
2018-10-12T06:39:04.508Z,97.80
2018-10-12T06:41:33.752Z,97.80
2018-10-12T06:44:03.656Z,97.80
2018-10-12T06:46:33.938Z,97.80
2018-10-12T06:49:04.288Z,97.70
2018-10-12T06:51:33.606Z,97.80
2018-10-12T06:54:02.837Z,97.70
2018-10-12T06:56:33.214Z,97.70
2018-10-12T06:59:02.675Z,97.70
2018-10-12T07:01:32.333Z,97.70
2018-10-12T07:04:01.450Z,97.70
2018-10-12T07:06:30.918Z,97.70
2018-10-12T07:09:00.820Z,97.70
2018-10-12T07:11:30.163Z,97.70
2018-10-12T07:13:59.216Z,97.70
2018-10-12T07:16:31.395Z,97.70
2018-10-12T07:19:01.113Z,97.70
2018-10-12T07:21:30.205Z,97.70
2018-10-12T07:23:59.204Z,97.60
2018-10-12T07:26:30.400Z,97.60
2018-10-12T07:29:00.605Z,97.60
2018-10-12T07:31:29.777Z,97.50
2018-10-12T07:33:59.223Z,97.50
2018-10-12T07:36:28.311Z,97.40
2018-10-12T07:38:57.484Z,97.30
2018-10-12T07:41:28.279Z,97.30
2018-10-12T07:43:58.282Z,97.20
2018-10-12T07:46:27.631Z,97.10
2018-10-12T07:48:56.768Z,97.00
2018-10-12T07:51:25.911Z,96.90
2018-10-12T07:53:54.999Z,96.80
2018-10-12T07:56:24.324Z,96.70
2018-10-12T07:58:53.601Z,96.60
2018-10-12T08:01:22.632Z,96.50
2018-10-12T08:03:52.472Z,96.50
2018-10-12T08:06:21.699Z,96.40
2018-10-12T08:08:50.664Z,96.50
2018-10-12T08:11:19.645Z,96.40
2018-10-12T08:13:48.974Z,96.30
2018-10-12T08:16:18.164Z,96.30
2018-10-12T08:18:47.319Z,96.20
2018-10-12T08:21:17.360Z,96.20
2018-10-12T08:23:46.435Z,96.20
2018-10-12T08:26:15.515Z,96.10
2018-10-12T08:28:44.971Z,96.20
2018-10-12T08:31:14.731Z,96.20
2018-10-12T08:33:44.412Z,96.10
2018-10-12T08:36:13.589Z,96.20
2018-10-12T08:38:42.598Z,96.20
2018-10-12T08:41:11.673Z,96.10
2018-10-12T08:43:40.677Z,96.10
2018-10-12T08:46:09.903Z,96.00
2018-10-12T08:48:39.072Z,95.90
2018-10-12T08:51:08.250Z,95.80
2018-10-12T08:53:37.357Z,95.70
2018-10-12T08:56:06.420Z,95.60
2018-10-12T08:58:35.733Z,95.50
2018-10-12T09:01:04.724Z,95.30
2018-10-12T09:03:35.416Z,95.20
2018-10-12T09:06:05.558Z,95.10
2018-10-12T09:08:36.059Z,95.10
2018-10-12T09:11:06.444Z,94.90
2018-10-12T09:13:36.625Z,94.70
2018-10-12T09:16:05.852Z,94.80
2018-10-12T09:18:35.287Z,94.50
2018-10-12T09:21:04.611Z,94.30
2018-10-12T09:23:34.303Z,94.10
2018-10-12T09:26:03.421Z,94.20
2018-10-12T09:28:32.697Z,93.90
2018-10-12T09:31:01.906Z,93.80
2018-10-12T09:33:32.089Z,93.60
2018-10-12T09:36:04.348Z,93.30
2018-10-12T09:38:33.800Z,93.20
2018-10-12T09:41:02.889Z,93.10
2018-10-12T09:43:32.382Z,92.90
2018-10-12T09:46:01.786Z,92.80
2018-10-12T09:48:31.088Z,91.90
2018-10-12T09:51:00.149Z,90.90
2018-10-12T09:53:29.494Z,90.20
2018-10-12T09:55:59.107Z,88.00
2018-10-12T09:58:28.372Z,86.60
2018-10-12T10:01:02.823Z,85.50
2018-10-12T10:03:37.406Z,85.00
2018-10-12T10:06:06.812Z,82.90
2018-10-12T10:08:36.343Z,83.00
2018-10-12T10:11:05.527Z,82.60
2018-10-12T10:13:34.985Z,82.10
2018-10-12T10:16:04.040Z,82.30
2018-10-12T10:18:33.361Z,81.80
2018-10-12T10:21:02.696Z,82.30
2018-10-12T10:23:31.840Z,83.00
2018-10-12T10:26:01.008Z,81.50
2018-10-12T10:28:30.218Z,80.60
2018-10-12T10:30:59.379Z,79.40
2018-10-12T10:33:28.791Z,77.10
2018-10-12T10:35:57.735Z,75.40
2018-10-12T10:38:26.822Z,74.20
2018-10-12T10:40:56.313Z,72.60
2018-10-12T10:43:25.613Z,71.30
2018-10-12T10:45:54.789Z,68.90
2018-10-12T10:48:24.349Z,67.10
2018-10-12T10:50:53.514Z,65.90
2018-10-12T10:53:22.702Z,65.00
2018-10-12T10:55:51.909Z,62.80
2018-10-12T10:58:21.070Z,63.70
2018-10-12T11:00:50.459Z,63.20
2018-10-12T11:03:19.941Z,62.30
2018-10-12T11:05:49.783Z,62.40
2018-10-12T11:08:19.168Z,62.70
2018-10-12T11:10:48.618Z,62.60
2018-10-12T11:13:18.043Z,61.70
2018-10-12T11:15:47.359Z,60.10
2018-10-12T11:18:16.441Z,59.60
2018-10-12T11:20:45.496Z,59.30
2018-10-12T11:23:14.689Z,59.30
2018-10-12T11:25:43.836Z,58.90
2018-10-12T11:28:14.180Z,58.10
2018-10-12T11:30:43.127Z,57.70
2018-10-12T11:33:12.259Z,56.80
2018-10-12T11:35:41.483Z,56.80
2018-10-12T11:38:10.932Z,56.40
2018-10-12T11:40:40.181Z,55.80
2018-10-12T11:43:20.255Z,56.10
2018-10-12T11:45:49.949Z,56.40
2018-10-12T11:48:19.421Z,55.10
2018-10-12T11:50:48.575Z,54.50
2018-10-12T11:53:17.917Z,53.80
2018-10-12T11:55:46.949Z,53.30
2018-10-12T11:58:16.069Z,53.00
2018-10-12T12:00:45.391Z,52.60
2018-10-12T12:03:14.822Z,52.50
2018-10-12T12:05:44.359Z,52.50
2018-10-12T12:08:13.576Z,51.60
2018-10-12T12:10:42.807Z,51.10
2018-10-12T12:13:12.054Z,51.10
2018-10-12T12:15:41.249Z,50.60
2018-10-12T12:18:10.392Z,50.50
2018-10-12T12:20:39.494Z,49.40
2018-10-12T12:23:08.873Z,49.20
2018-10-12T12:25:38.272Z,48.70
2018-10-12T12:28:07.677Z,48.60
2018-10-12T12:30:36.811Z,48.80
2018-10-12T12:33:05.836Z,49.10
2018-10-12T12:35:35.401Z,49.60
2018-10-12T12:38:04.257Z,49.40
2018-10-12T12:40:33.369Z,49.10
2018-10-12T12:43:02.368Z,49.60
2018-10-12T12:45:31.566Z,50.80
2018-10-12T12:48:00.774Z,51.20
2018-10-12T12:50:29.979Z,51.40
2018-10-12T12:52:59.008Z,51.10
2018-10-12T12:55:28.192Z,50.00
2018-10-12T12:57:57.231Z,48.80
2018-10-12T13:00:26.452Z,47.60
2018-10-12T13:02:55.606Z,47.50
2018-10-12T13:05:24.599Z,47.10
2018-10-12T13:07:53.714Z,46.60
2018-10-12T13:10:22.936Z,45.50
2018-10-12T13:12:51.935Z,44.80
2018-10-12T13:15:21.187Z,44.10
2018-10-12T13:17:50.235Z,42.50
2018-10-12T13:20:19.471Z,41.30
2018-10-12T13:22:48.487Z,41.20
2018-10-12T13:25:17.803Z,40.60
2018-10-12T13:27:46.900Z,39.50
2018-10-12T13:30:16.250Z,39.40
2018-10-12T13:32:45.340Z,38.90
2018-10-12T13:35:14.576Z,38.80
2018-10-12T13:37:43.751Z,38.90
2018-10-12T13:40:12.965Z,38.90
2018-10-12T13:42:42.129Z,38.50
2018-10-12T13:45:14.113Z,37.80
2018-10-12T13:47:43.196Z,37.70
2018-10-12T13:50:12.336Z,37.50
2018-10-12T13:52:41.340Z,37.30
2018-10-12T13:55:10.568Z,36.70
2018-10-12T13:57:42.200Z,36.70
2018-10-12T14:00:11.329Z,37.10
2018-10-12T14:02:40.390Z,37.20
2018-10-12T14:05:09.689Z,37.30
2018-10-12T14:07:38.776Z,37.50
2018-10-12T14:10:07.957Z,38.50
2018-10-12T14:12:37.017Z,39.20
2018-10-12T14:15:07.075Z,39.70
2018-10-12T14:17:37.068Z,40.10
2018-10-12T14:20:06.407Z,40.60
2018-10-12T14:22:35.291Z,40.60
2018-10-12T14:25:04.998Z,40.30
2018-10-12T14:27:33.951Z,40.40
2018-10-12T14:30:03.265Z,40.60
2018-10-12T14:32:32.479Z,40.60
2018-10-12T14:35:01.715Z,41.00
2018-10-12T14:37:30.906Z,41.70
2018-10-12T14:39:59.854Z,42.50
2018-10-12T14:42:28.981Z,43.30
2018-10-12T14:44:58.070Z,43.80
2018-10-12T14:47:27.033Z,44.40
2018-10-12T14:49:55.976Z,45.20
2018-10-12T14:52:24.945Z,45.50
2018-10-12T14:54:53.851Z,45.80
2018-10-12T14:57:23.080Z,46.20
2018-10-12T14:59:53.042Z,46.60
2018-10-12T15:02:22.020Z,47.20
2018-10-12T15:04:51.158Z,47.80
2018-10-12T15:07:20.618Z,48.40
2018-10-12T15:09:49.832Z,49.00
2018-10-12T15:12:18.950Z,49.70
2018-10-12T15:14:58.822Z,50.20
2018-10-12T15:17:27.925Z,50.60
2018-10-12T15:19:57.332Z,51.10
2018-10-12T15:22:26.324Z,51.50
2018-10-12T15:24:55.289Z,52.00
2018-10-12T15:27:24.453Z,52.50
2018-10-12T15:29:53.469Z,52.90
2018-10-12T15:32:22.555Z,53.30
2018-10-12T15:34:51.515Z,53.50
2018-10-12T15:37:20.596Z,54.10
2018-10-12T15:39:49.606Z,54.60
2018-10-12T15:42:18.758Z,55.00
2018-10-12T15:44:47.715Z,55.50
2018-10-12T15:47:16.769Z,55.80
2018-10-12T15:49:45.862Z,56.10
2018-10-12T15:52:14.921Z,56.30
2018-10-12T15:54:43.860Z,56.70
2018-10-12T15:57:17.104Z,57.20
2018-10-12T15:59:47.138Z,57.80
2018-10-12T16:02:16.659Z,58.30
2018-10-12T16:04:46.327Z,58.70
2018-10-12T16:07:16.716Z,59.00
2018-10-12T16:09:47.915Z,59.30
2018-10-12T16:12:17.679Z,60.00
2018-10-12T16:14:47.579Z,60.90
2018-10-12T16:17:16.713Z,61.70
2018-10-12T16:19:45.606Z,62.50
2018-10-12T16:22:14.698Z,63.50
2018-10-12T16:24:53.633Z,64.20
2018-10-12T16:27:22.667Z,64.90
2018-10-12T16:29:51.869Z,66.00
2018-10-12T16:32:20.980Z,66.80
2018-10-12T16:34:49.969Z,67.60
2018-10-12T16:37:19.119Z,68.40
2018-10-12T16:39:48.279Z,69.30
2018-10-12T16:42:17.305Z,70.10
2018-10-12T16:44:46.566Z,70.80
2018-10-12T16:47:15.576Z,71.60
2018-10-12T16:49:44.529Z,72.20
2018-10-12T16:52:13.575Z,72.80
2018-10-12T16:54:42.540Z,73.40
2018-10-12T16:57:11.465Z,74.00
2018-10-12T16:59:40.458Z,74.60
2018-10-12T17:02:09.412Z,75.20
2018-10-12T17:04:38.695Z,76.00
2018-10-12T17:07:07.794Z,76.30
2018-10-12T17:09:36.686Z,76.80
2018-10-12T17:12:05.715Z,77.10
2018-10-12T17:14:34.740Z,77.40
2018-10-12T17:17:03.735Z,77.80
2018-10-12T17:19:32.787Z,78.30
2018-10-12T17:22:01.669Z,78.70
2018-10-12T17:24:30.600Z,79.10
2018-10-12T17:26:59.769Z,79.40
2018-10-12T17:29:28.737Z,79.90
2018-10-12T17:32:00.581Z,80.10
2018-10-12T17:34:29.474Z,80.60
2018-10-12T17:36:58.588Z,80.80
2018-10-12T17:39:27.470Z,81.10
2018-10-12T17:42:02.433Z,81.20
2018-10-12T17:44:31.437Z,81.40
2018-10-12T17:47:00.731Z,81.40
2018-10-12T17:49:29.907Z,81.60
2018-10-12T17:51:59.097Z,81.90
2018-10-12T17:54:27.986Z,82.00
2018-10-12T17:56:57.118Z,82.10
2018-10-12T17:59:26.040Z,82.30
2018-10-12T18:01:54.933Z,82.60
2018-10-12T18:04:23.978Z,83.00
2018-10-12T18:06:52.928Z,83.20
2018-10-12T18:09:22.197Z,83.70
2018-10-12T18:11:52.904Z,83.90
2018-10-12T18:14:21.765Z,84.20
2018-10-12T18:16:50.846Z,84.50
2018-10-12T18:19:19.831Z,85.00
2018-10-12T18:21:48.707Z,85.60
2018-10-12T18:24:17.533Z,86.00
2018-10-12T18:26:46.460Z,86.30
2018-10-12T18:29:15.612Z,86.60
2018-10-12T18:31:44.541Z,87.00
2018-10-12T18:34:15.503Z,87.30
2018-10-12T18:36:46.951Z,87.80
2018-10-12T18:39:15.814Z,88.00
2018-10-12T18:41:44.749Z,88.20
2018-10-12T18:44:13.653Z,88.60
2018-10-12T18:46:42.648Z,89.00
2018-10-12T18:49:11.721Z,89.20
2018-10-12T18:51:40.859Z,89.50
2018-10-12T18:54:09.865Z,89.60
2018-10-12T18:56:38.653Z,90.00
2018-10-12T18:59:07.678Z,90.10
2018-10-12T19:01:36.572Z,90.20
2018-10-12T19:04:05.550Z,90.40
2018-10-12T19:06:34.719Z,90.50
2018-10-12T19:09:04.063Z,90.60
2018-10-12T19:11:32.991Z,90.70
2018-10-12T19:14:01.953Z,90.80
2018-10-12T19:16:30.954Z,90.90
2018-10-12T19:18:59.856Z,91.10
2018-10-12T19:21:29.123Z,91.10
2018-10-12T19:23:58.064Z,91.20
2018-10-12T19:26:27.047Z,91.30
2018-10-12T19:28:55.999Z,91.40
2018-10-12T19:31:25.144Z,91.40
2018-10-12T19:33:53.981Z,91.40
2018-10-12T19:36:22.835Z,91.80
2018-10-12T19:38:51.688Z,91.60
2018-10-12T19:41:20.581Z,91.60
2018-10-12T19:43:49.672Z,91.70
2018-10-12T19:46:18.528Z,91.70
2018-10-12T19:48:47.404Z,91.70
2018-10-12T19:51:16.493Z,91.80
2018-10-12T19:53:45.358Z,91.80
2018-10-12T19:56:14.253Z,91.80
2018-10-12T19:58:43.120Z,91.90
2018-10-12T20:01:11.966Z,91.90
2018-10-12T20:03:40.821Z,92.00
2018-10-12T20:06:09.927Z,92.10
2018-10-12T20:08:38.876Z,92.20
2018-10-12T20:11:07.852Z,92.30
2018-10-12T20:13:36.888Z,92.30
2018-10-12T20:16:05.783Z,92.40
2018-10-12T20:18:35.566Z,92.50
2018-10-12T20:21:04.666Z,92.60
2018-10-12T20:23:33.722Z,92.70
2018-10-12T20:26:02.627Z,92.80
2018-10-12T20:28:31.468Z,92.90
2018-10-12T20:31:00.323Z,92.90
2018-10-12T20:33:29.235Z,93.00
2018-10-12T20:35:58.515Z,93.00
2018-10-12T20:38:27.381Z,93.10
2018-10-12T20:40:57.067Z,93.10
2018-10-12T20:43:25.992Z,93.20
2018-10-12T20:45:54.865Z,93.20
2018-10-12T20:48:23.716Z,93.30
2018-10-12T20:50:52.587Z,93.40
2018-10-12T20:53:21.660Z,93.40
2018-10-12T20:55:50.530Z,93.40
2018-10-12T20:58:19.625Z,93.40
2018-10-12T21:00:48.760Z,93.50
2018-10-12T21:03:17.884Z,93.50
2018-10-12T21:05:46.873Z,93.50
2018-10-12T21:08:15.765Z,93.50
2018-10-12T21:10:44.709Z,93.60
2018-10-12T21:13:13.649Z,93.50
2018-10-12T21:15:42.617Z,93.60
2018-10-12T21:18:11.564Z,93.70
2018-10-12T21:20:40.366Z,93.80
2018-10-12T21:23:09.346Z,93.90
2018-10-12T21:25:38.290Z,93.90
2018-10-12T21:28:07.189Z,94.00
2018-10-12T21:30:36.064Z,94.10
2018-10-12T21:33:05.760Z,94.20
2018-10-12T21:35:34.826Z,94.20
2018-10-12T21:38:03.669Z,94.20
2018-10-12T21:40:32.587Z,94.30
2018-10-12T21:43:01.584Z,94.40
2018-10-12T21:45:30.606Z,94.40
2018-10-12T21:47:59.523Z,94.50
2018-10-12T21:50:28.668Z,94.60
2018-10-12T21:52:57.549Z,94.60
2018-10-12T21:55:26.531Z,94.60
2018-10-12T21:57:55.445Z,94.50
2018-10-12T22:00:24.372Z,94.50
2018-10-12T22:03:00.130Z,94.40
2018-10-12T22:05:29.044Z,94.30
2018-10-12T22:07:58.224Z,94.30
2018-10-12T22:10:27.113Z,94.30
2018-10-12T22:12:56.004Z,94.20
2018-10-12T22:15:25.053Z,94.10
2018-10-12T22:17:53.895Z,94.20
2018-10-12T22:20:22.845Z,94.00
2018-10-12T22:22:51.713Z,94.30
2018-10-12T22:25:20.734Z,94.00
2018-10-12T22:27:49.641Z,94.00
2018-10-12T22:30:18.534Z,94.00
2018-10-12T22:32:47.485Z,94.00
2018-10-12T22:35:16.443Z,93.90
2018-10-12T22:37:45.404Z,93.90
2018-10-12T22:40:14.323Z,94.00
2018-10-12T22:42:43.256Z,94.00
2018-10-12T22:45:12.223Z,94.10
2018-10-12T22:47:41.079Z,94.00
2018-10-12T22:50:10.003Z,94.10
2018-10-12T22:52:39.032Z,94.10
2018-10-12T22:55:08.136Z,94.20
2018-10-12T22:57:37.230Z,94.30
2018-10-12T23:00:06.117Z,94.40
2018-10-12T23:02:35.144Z,94.60
2018-10-12T23:05:04.296Z,94.70
2018-10-12T23:07:33.125Z,94.80
2018-10-12T23:10:02.045Z,95.00
2018-10-12T23:12:30.939Z,95.00
2018-10-12T23:14:59.846Z,95.20
2018-10-12T23:17:28.692Z,95.30
2018-10-12T23:19:57.649Z,95.30
2018-10-12T23:22:26.497Z,95.40
2018-10-12T23:24:55.351Z,95.50
2018-10-12T23:27:24.268Z,95.50
2018-10-12T23:29:53.144Z,95.50
2018-10-12T23:32:21.963Z,95.60
2018-10-12T23:34:50.969Z,95.60
2018-10-12T23:37:19.837Z,95.60
2018-10-12T23:39:48.825Z,95.60
2018-10-12T23:42:17.822Z,95.70
2018-10-12T23:44:47.044Z,95.70
2018-10-12T23:47:16.086Z,95.80
2018-10-12T23:49:45.007Z,95.80
2018-10-12T23:52:13.906Z,95.80
2018-10-12T23:54:42.984Z,95.90
2018-10-12T23:57:11.865Z,95.90
2018-10-12T23:59:40.748Z,96.00
